createdAt,value
2018-06-15T00:00:20.233Z,34.83
2018-06-15T00:02:53.852Z,37.13
2018-06-15T00:05:22.183Z,40.43
2018-06-15T00:07:50.528Z,33.17
2018-06-15T00:10:18.840Z,35.07
2018-06-15T00:12:47.170Z,40.17
2018-06-15T00:15:15.481Z,36.47
2018-06-15T00:17:43.876Z,39.70
2018-06-15T00:20:12.280Z,36.37
2018-06-15T00:22:40.565Z,37.13
2018-06-15T00:25:08.927Z,41.77
2018-06-15T00:27:38.200Z,38.53
2018-06-15T00:30:07.385Z,41.93
2018-06-15T00:32:35.738Z,36.70
2018-06-15T00:35:04.157Z,44.20
2018-06-15T00:37:32.467Z,41.00
2018-06-15T00:40:00.785Z,42.07
2018-06-15T00:42:29.160Z,43.50
2018-06-15T00:44:57.542Z,47.33
2018-06-15T00:47:25.884Z,45.70
2018-06-15T00:49:54.211Z,44.57
2018-06-15T00:52:22.844Z,39.97
2018-06-15T00:54:51.178Z,40.37
2018-06-15T00:57:30.849Z,41.87
2018-06-15T00:59:59.220Z,51.67
2018-06-15T01:02:27.567Z,44.33
2018-06-15T01:04:55.922Z,48.93
2018-06-15T01:07:24.236Z,43.53
2018-06-15T01:09:52.591Z,50.73
2018-06-15T01:12:21.086Z,52.87
2018-06-15T01:14:49.387Z,55.23
2018-06-15T01:17:17.689Z,60.30
2018-06-15T01:19:46.357Z,52.63
2018-06-15T01:23:44.150Z,54.83
2018-06-15T01:26:12.452Z,49.77
2018-06-15T01:28:40.748Z,52.73
2018-06-15T01:31:09.098Z,58.60
2018-06-15T01:33:37.463Z,54.27
2018-06-15T01:36:05.965Z,52.67
2018-06-15T01:38:34.790Z,53.30
2018-06-15T01:41:03.089Z,57.10
2018-06-15T01:43:31.442Z,61.30
2018-06-15T01:45:59.766Z,54.93
2018-06-15T01:48:28.083Z,55.33
2018-06-15T01:50:56.390Z,57.63
2018-06-15T01:53:24.704Z,55.07
2018-06-15T01:55:53.383Z,60.80
2018-06-15T01:58:21.725Z,51.03
2018-06-15T02:00:50.102Z,63.67
2018-06-15T02:03:18.400Z,52.17
2018-06-15T02:05:46.734Z,59.10
2018-06-15T02:08:15.312Z,60.90
2018-06-15T02:10:43.633Z,53.83
2018-06-15T02:13:11.959Z,58.57
2018-06-15T02:15:40.229Z,61.10
2018-06-15T02:18:08.570Z,59.93
2018-06-15T02:20:36.877Z,58.50
2018-06-15T02:23:05.260Z,70.77
2018-06-15T02:25:33.622Z,93.67
2018-06-15T02:28:02.404Z,79.40
2018-06-15T02:30:30.844Z,89.03
2018-06-15T02:32:59.147Z,93.50
2018-06-15T02:35:27.495Z,92.53
2018-06-15T02:37:55.847Z,86.57
2018-06-15T02:40:24.191Z,82.03
2018-06-15T02:42:52.637Z,86.23
2018-06-15T02:45:21.087Z,87.50
2018-06-15T02:47:49.571Z,80.13
2018-06-15T02:50:17.950Z,76.33
2018-06-15T02:52:46.369Z,100.57
2018-06-15T02:55:16.167Z,85.87
2018-06-15T02:57:44.753Z,84.33
2018-06-15T03:00:13.120Z,74.70
2018-06-15T03:02:41.530Z,103.23
2018-06-15T03:05:09.912Z,76.47
2018-06-15T03:07:38.183Z,75.90
2018-06-15T03:10:06.532Z,72.43
2018-06-15T03:12:34.895Z,76.47
2018-06-15T03:15:03.297Z,69.47
2018-06-15T03:17:31.587Z,80.90
2018-06-15T03:20:00.270Z,63.37
2018-06-15T03:22:28.602Z,74.10
2018-06-15T03:24:56.957Z,71.97
2018-06-15T03:27:25.301Z,68.07
2018-06-15T03:29:53.597Z,70.77
2018-06-15T03:32:21.959Z,78.47
2018-06-15T03:34:50.468Z,82.93
2018-06-15T03:37:18.820Z,78.00
2018-06-15T03:39:47.140Z,73.27
2018-06-15T03:42:15.446Z,74.17
2018-06-15T03:44:43.765Z,78.43
2018-06-15T03:47:12.085Z,60.00
2018-06-15T03:49:40.410Z,80.73
2018-06-15T03:52:08.711Z,70.80
2018-06-15T03:54:37.114Z,73.63
2018-06-15T03:57:05.870Z,82.40
2018-06-15T03:59:34.154Z,93.93
2018-06-15T04:02:02.488Z,80.73
2018-06-15T04:04:30.777Z,80.50
2018-06-15T04:06:59.092Z,77.70
2018-06-15T04:09:27.319Z,82.13
2018-06-15T04:11:55.611Z,86.30
2018-06-15T04:14:23.908Z,92.80
2018-06-15T04:16:52.141Z,92.40
2018-06-15T04:19:20.452Z,79.23
2018-06-15T04:21:48.716Z,87.87
2018-06-15T04:24:17.022Z,77.30
2018-06-15T04:26:45.299Z,81.90
2018-06-15T04:29:13.651Z,84.23
2018-06-15T04:31:42.114Z,78.90
2018-06-15T04:34:10.424Z,79.17
2018-06-15T04:36:38.707Z,73.03
2018-06-15T04:39:08.122Z,67.53
2018-06-15T04:41:36.380Z,67.50
2018-06-15T04:44:04.986Z,58.87
2018-06-15T04:46:33.331Z,54.70
2018-06-15T04:49:01.605Z,58.93
2018-06-15T04:51:29.924Z,59.13
2018-06-15T04:53:58.207Z,54.63
2018-06-15T04:56:26.726Z,49.23
2018-06-15T04:58:55.047Z,45.87
2018-06-15T05:01:23.328Z,46.60
2018-06-15T05:03:51.850Z,45.87
2018-06-15T05:06:20.129Z,47.00
2018-06-15T05:08:48.443Z,45.90
2018-06-15T05:11:16.705Z,48.47
2018-06-15T05:13:45.095Z,47.80
2018-06-15T05:16:13.560Z,42.27
2018-06-15T05:18:41.816Z,44.97
2018-06-15T05:21:10.110Z,45.03
2018-06-15T05:23:38.421Z,44.40
2018-06-15T05:26:06.764Z,41.57
2018-06-15T05:28:35.382Z,45.53
2018-06-15T05:31:03.659Z,41.10
2018-06-15T05:33:31.934Z,38.37
2018-06-15T05:36:00.256Z,35.53
2018-06-15T05:38:29.117Z,31.97
2018-06-15T05:40:57.953Z,32.50
2018-06-15T05:43:26.265Z,37.40
2018-06-15T05:45:54.522Z,31.60
2018-06-15T05:48:23.342Z,31.80
2018-06-15T05:50:52.574Z,31.85
2018-06-15T05:54:50.641Z,32.67
2018-06-15T05:57:19.499Z,34.45
2018-06-15T05:59:48.361Z,34.30
2018-06-15T06:02:17.279Z,32.40
2018-06-15T06:04:45.884Z,35.50
2018-06-15T06:07:14.726Z,35.75
2018-06-15T06:09:43.608Z,37.08
2018-06-15T06:12:12.466Z,34.27
2018-06-15T06:14:41.391Z,37.98
2018-06-15T06:17:10.313Z,36.25
2018-06-15T06:19:39.194Z,34.45
2018-06-15T06:22:08.064Z,37.75
2018-06-15T06:24:36.927Z,35.28
2018-06-15T06:27:06.071Z,33.15
2018-06-15T06:29:34.991Z,39.08
2018-06-15T06:32:03.869Z,36.03
2018-06-15T06:34:32.918Z,31.97
2018-06-15T06:37:01.886Z,36.55
2018-06-15T06:39:30.726Z,36.53
2018-06-15T06:41:59.647Z,38.63
2018-06-15T06:44:28.707Z,37.08
2018-06-15T06:46:57.623Z,35.52
2018-06-15T06:49:26.227Z,33.38
2018-06-15T06:51:55.065Z,37.75
2018-06-15T06:54:24.040Z,39.55
2018-06-15T06:56:53.137Z,38.60
2018-06-15T06:59:22.091Z,36.70
2018-06-15T07:01:51.027Z,37.90
2018-06-15T07:04:19.667Z,34.93
2018-06-15T07:06:48.524Z,38.63
2018-06-15T07:09:17.510Z,35.33
2018-06-15T07:11:47.040Z,37.38
2018-06-15T07:14:15.910Z,40.60
2018-06-15T07:16:44.860Z,38.90
2018-06-15T07:19:13.541Z,35.58
2018-06-15T07:21:42.548Z,37.58
2018-06-15T07:24:11.407Z,38.98
2018-06-15T07:26:40.383Z,37.85
2018-06-15T07:29:09.433Z,40.03
2018-06-15T07:31:38.583Z,36.40
2018-06-15T07:34:07.611Z,36.75
2018-06-15T07:36:36.657Z,41.53
2018-06-15T07:39:07.859Z,38.28
2018-06-15T07:41:36.877Z,36.85
2018-06-15T07:44:06.126Z,37.45
2018-06-15T07:46:34.990Z,37.08
2018-06-15T07:49:04.006Z,35.80
2018-06-15T07:51:32.842Z,34.33
2018-06-15T07:54:02.057Z,37.42
2018-06-15T07:56:30.931Z,35.43
2018-06-15T07:58:59.858Z,36.05
2018-06-15T08:01:28.861Z,37.75
2018-06-15T08:04:02.231Z,34.27
2018-06-15T08:06:31.485Z,32.60
2018-06-15T08:09:00.974Z,32.33
2018-06-15T08:11:30.283Z,30.97
2018-06-15T08:15:28.408Z,30.02
2018-06-15T08:17:57.363Z,24.60
2018-06-15T08:20:26.275Z,26.00
2018-06-15T08:22:55.266Z,24.23
2018-06-15T08:25:30.243Z,25.62
2018-06-15T08:27:59.272Z,28.38
2018-06-15T08:30:28.239Z,26.70
2018-06-15T08:32:57.197Z,29.70
2018-06-15T08:35:26.109Z,27.42
2018-06-15T08:37:55.138Z,26.57
2018-06-15T08:40:24.219Z,28.30
2018-06-15T08:42:54.719Z,26.52
2018-06-15T08:45:23.812Z,29.00
2018-06-15T08:47:52.780Z,25.80
2018-06-15T08:50:21.700Z,25.27
2018-06-15T08:52:50.980Z,28.20
2018-06-15T08:55:20.133Z,26.97
2018-06-15T08:57:49.385Z,30.70
2018-06-15T09:00:18.580Z,28.70
2018-06-15T09:02:47.577Z,26.12
2018-06-15T09:05:16.721Z,27.43
2018-06-15T09:07:46.672Z,25.20
2018-06-15T09:10:15.665Z,24.87
2018-06-15T09:12:44.442Z,22.87
2018-06-15T09:15:13.472Z,26.52
2018-06-15T09:17:42.360Z,26.10
2018-06-15T09:20:11.319Z,22.67
2018-06-15T09:22:40.287Z,23.45
2018-06-15T09:25:09.234Z,23.42
2018-06-15T09:27:38.259Z,20.65
2018-06-15T09:30:07.277Z,21.33
2018-06-15T09:32:36.483Z,21.35
2018-06-15T09:35:05.801Z,21.52
2018-06-15T09:37:34.865Z,19.77
2018-06-15T09:40:03.858Z,21.10
2018-06-15T09:42:33.139Z,19.48
2018-06-15T09:45:02.263Z,20.08
2018-06-15T09:47:31.140Z,19.80
2018-06-15T09:50:00.080Z,18.17
2018-06-15T09:52:29.277Z,19.85
2018-06-15T09:54:58.156Z,17.52
2018-06-15T09:57:27.030Z,19.87
2018-06-15T09:59:55.949Z,19.12
2018-06-15T10:02:24.799Z,21.87
2018-06-15T10:04:53.749Z,17.25
2018-06-15T10:07:22.604Z,21.00
2018-06-15T10:09:51.461Z,17.35
2018-06-15T10:12:20.904Z,17.42
2018-06-15T10:14:49.762Z,17.23
2018-06-15T10:17:18.663Z,17.90
2018-06-15T10:19:47.548Z,17.57
2018-06-15T10:22:16.412Z,16.73
2018-06-15T10:24:45.354Z,20.15
2018-06-15T10:27:14.450Z,20.12
2018-06-15T10:29:43.538Z,19.15
2018-06-15T10:32:12.789Z,18.85
2018-06-15T10:34:41.687Z,21.00
2018-06-15T10:37:10.850Z,16.87
2018-06-15T10:39:39.703Z,18.75
2018-06-15T10:42:08.689Z,17.50
2018-06-15T10:44:37.580Z,13.80
2018-06-15T10:47:06.463Z,15.15
2018-06-15T10:49:35.085Z,17.67
2018-06-15T10:52:03.980Z,17.05
2018-06-15T10:54:32.872Z,18.60
2018-06-15T10:57:01.718Z,18.02
2018-06-15T10:59:30.571Z,16.12
2018-06-15T11:01:59.395Z,15.80
2018-06-15T11:04:27.951Z,16.80
2018-06-15T11:06:56.772Z,14.25
2018-06-15T11:09:25.843Z,16.05
2018-06-15T11:11:54.826Z,15.98
2018-06-15T11:14:23.454Z,14.75
2018-06-15T11:16:52.462Z,16.62
2018-06-15T11:19:21.334Z,17.27
2018-06-15T11:21:50.228Z,15.35
2018-06-15T11:24:19.269Z,17.15
2018-06-15T11:26:48.350Z,18.40
2018-06-15T11:29:17.255Z,15.32
2018-06-15T11:31:46.123Z,17.23
2018-06-15T11:34:14.981Z,18.52
2018-06-15T11:36:44.376Z,17.37
2018-06-15T11:39:13.262Z,19.23
2018-06-15T11:41:43.451Z,19.55
2018-06-15T11:44:12.306Z,21.60
2018-06-15T11:46:41.169Z,21.97
2018-06-15T11:49:10.064Z,26.48
2018-06-15T11:51:38.939Z,23.85
2018-06-15T11:54:07.779Z,17.95
2018-06-15T11:56:36.681Z,21.57
2018-06-15T11:59:05.613Z,21.82
2018-06-15T12:01:34.485Z,22.17
2018-06-15T12:04:03.065Z,22.47
2018-06-15T12:06:31.946Z,17.23
2018-06-15T12:09:00.785Z,26.48
2018-06-15T12:11:29.664Z,16.85
2018-06-15T12:13:58.521Z,16.65
2018-06-15T12:16:27.364Z,15.95
2018-06-15T12:18:56.412Z,19.12
2018-06-15T12:21:25.327Z,20.10
2018-06-15T12:23:54.216Z,25.08
2018-06-15T12:26:23.053Z,20.35
2018-06-15T12:28:52.120Z,22.70
2018-06-15T12:31:20.971Z,22.95
2018-06-15T12:33:49.838Z,20.20
2018-06-15T12:36:18.792Z,20.80
2018-06-15T12:38:47.710Z,18.35
2018-06-15T12:41:16.589Z,20.15
2018-06-15T12:43:45.711Z,18.52
2018-06-15T12:46:14.357Z,12.37
2018-06-15T12:48:42.662Z,8.77
2018-06-15T12:51:11.569Z,11.48
2018-06-15T12:53:40.107Z,9.83
2018-06-15T12:56:08.687Z,27.93
2018-06-15T12:58:37.244Z,25.10
2018-06-15T13:01:06.090Z,23.47
2018-06-15T13:03:34.370Z,24.33
2018-06-15T13:06:03.230Z,27.00
2018-06-15T13:08:32.066Z,27.87
2018-06-15T13:11:00.908Z,28.47
2018-06-15T13:13:29.905Z,28.52
2018-06-15T13:15:58.759Z,30.35
2018-06-15T13:18:27.623Z,27.98
2018-06-15T13:20:56.540Z,26.17
2018-06-15T13:23:25.368Z,27.35
2018-06-15T13:25:54.166Z,27.05
2018-06-15T13:28:23.050Z,24.00
2018-06-15T13:30:51.962Z,20.43
2018-06-15T13:33:20.832Z,22.87
2018-06-15T13:35:49.713Z,15.90
2018-06-15T13:38:18.696Z,18.40
2018-06-15T13:40:47.546Z,20.02
2018-06-15T13:43:16.596Z,17.25
2018-06-15T13:45:45.472Z,20.37
2018-06-15T13:48:14.368Z,18.35
2018-06-15T13:50:43.216Z,15.95
2018-06-15T13:53:12.127Z,17.67
2018-06-15T13:55:41.976Z,16.57
2018-06-15T13:58:10.789Z,15.20
2018-06-15T14:00:39.658Z,15.50
2018-06-15T14:03:08.517Z,14.95
2018-06-15T14:05:37.110Z,14.00
2018-06-15T14:08:06.131Z,13.72
2018-06-15T14:10:35.212Z,15.70
2018-06-15T14:13:04.092Z,14.68
2018-06-15T14:15:32.924Z,15.60
2018-06-15T14:18:02.131Z,16.12
2018-06-15T14:20:31.789Z,15.53
2018-06-15T14:23:00.714Z,17.27
2018-06-15T14:25:29.582Z,13.93
2018-06-15T14:27:58.172Z,14.68
2018-06-15T14:30:27.067Z,14.98
2018-06-15T14:32:55.678Z,15.83
2018-06-15T14:35:24.401Z,16.80
2018-06-15T14:37:53.054Z,18.07
2018-06-15T14:40:21.616Z,12.73
2018-06-15T14:42:50.204Z,14.47
2018-06-15T14:45:18.791Z,18.03
2018-06-15T14:47:47.688Z,17.83
2018-06-15T14:50:16.266Z,15.87
2018-06-15T14:52:44.871Z,17.20
2018-06-15T14:55:13.726Z,17.03
2018-06-15T14:57:42.278Z,16.67
2018-06-15T15:00:10.881Z,15.43
2018-06-15T15:02:39.526Z,12.53
2018-06-15T15:05:08.187Z,13.70
2018-06-15T15:07:36.712Z,13.93
2018-06-15T15:10:05.584Z,10.67
2018-06-15T15:12:34.452Z,8.50
2018-06-15T15:15:03.118Z,10.50
2018-06-15T15:17:31.745Z,10.90
2018-06-15T15:20:00.072Z,9.73
2018-06-15T15:22:28.660Z,8.83
2018-06-15T15:24:57.320Z,10.10
2018-06-15T15:27:25.979Z,12.83
2018-06-15T15:29:54.804Z,11.23
2018-06-15T15:32:23.520Z,10.40
2018-06-15T15:34:52.097Z,9.20
2018-06-15T15:37:20.755Z,10.77
2018-06-15T15:39:49.500Z,10.33
2018-06-15T15:42:18.232Z,9.10
2018-06-15T15:44:46.897Z,9.23
2018-06-15T15:47:15.519Z,10.77
2018-06-15T15:49:44.410Z,10.28
2018-06-15T15:52:13.060Z,12.87
2018-06-15T15:54:41.936Z,10.03
2018-06-15T15:57:10.850Z,14.27
2018-06-15T15:59:39.507Z,10.27
2018-06-15T16:02:08.379Z,11.50
2018-06-15T16:04:36.939Z,10.77
2018-06-15T16:07:05.781Z,10.93
2018-06-15T16:09:34.794Z,12.18
2018-06-15T16:12:04.183Z,13.75
2018-06-15T16:14:32.738Z,13.27
2018-06-15T16:17:01.695Z,12.63
2018-06-15T16:19:31.154Z,12.98
2018-06-15T16:22:00.072Z,9.98
2018-06-15T16:24:28.945Z,11.83
2018-06-15T16:26:57.780Z,13.60
2018-06-15T16:29:26.635Z,11.65
2018-06-15T16:31:55.499Z,12.75
2018-06-15T16:34:24.374Z,9.78
2018-06-15T16:36:53.548Z,12.58
2018-06-15T16:39:22.376Z,12.78
2018-06-15T16:41:51.215Z,11.75
2018-06-15T16:44:20.046Z,14.80
2018-06-15T16:46:55.318Z,12.28
2018-06-15T16:56:12.206Z,11.85
2018-06-15T16:58:41.084Z,13.40
2018-06-15T17:01:09.965Z,13.38
2018-06-15T17:03:41.617Z,11.17
2018-06-15T17:06:10.486Z,10.23
2018-06-15T17:08:39.351Z,10.55
2018-06-15T17:11:08.207Z,8.48
2018-06-15T17:13:37.051Z,8.00
2018-06-15T17:16:15.107Z,7.47
2018-06-15T17:18:47.301Z,9.23
2018-06-15T17:21:16.201Z,9.45
2018-06-15T17:23:45.096Z,6.05
2018-06-15T17:26:13.978Z,7.67
2018-06-15T17:28:42.898Z,11.30
2018-06-15T17:31:11.832Z,9.38
2018-06-15T17:33:40.862Z,13.32
2018-06-15T17:36:09.768Z,12.20
2018-06-15T17:38:38.657Z,12.53
2018-06-15T17:41:07.557Z,10.13
2018-06-15T17:43:36.420Z,16.32
2018-06-15T17:46:05.527Z,10.72
2018-06-15T17:48:34.630Z,14.83
2018-06-15T17:51:03.567Z,14.13
2018-06-15T17:53:32.697Z,11.40
2018-06-15T17:56:01.604Z,17.90
2018-06-15T17:58:30.484Z,18.48
2018-06-15T18:00:59.809Z,17.23
2018-06-15T18:03:28.312Z,19.77
2018-06-15T18:05:58.534Z,21.20
2018-06-15T18:08:27.467Z,21.35
2018-06-15T18:10:56.603Z,19.70
2018-06-15T18:13:25.915Z,18.12
2018-06-15T18:15:55.324Z,18.40
2018-06-15T18:18:24.568Z,11.90
2018-06-15T18:20:53.753Z,12.73
2018-06-15T18:23:23.957Z,11.18
2018-06-15T18:25:52.902Z,12.28
2018-06-15T18:28:21.794Z,12.63
2018-06-15T18:30:53.862Z,11.68
2018-06-15T18:33:22.738Z,16.77
2018-06-15T18:35:51.604Z,10.72
2018-06-15T18:38:20.520Z,14.35
2018-06-15T18:40:49.408Z,14.85
2018-06-15T18:43:18.284Z,13.15
2018-06-15T18:45:47.139Z,13.85
2018-06-15T18:50:50.128Z,16.45
2018-06-15T18:53:18.991Z,14.38
2018-06-15T18:55:47.862Z,14.33
2018-06-15T18:58:16.729Z,20.62
2018-06-15T19:00:45.683Z,21.05
2018-06-15T19:03:14.594Z,14.30
2018-06-15T19:05:52.420Z,14.13
2018-06-15T19:08:24.328Z,17.25
2018-06-15T19:10:56.440Z,15.13
2018-06-15T19:13:28.387Z,15.23
2018-06-15T19:15:57.335Z,15.05
2018-06-15T19:18:26.297Z,14.73
2018-06-15T19:21:07.325Z,15.40
2018-06-15T19:23:39.349Z,21.97
2018-06-15T19:26:08.251Z,20.75
2018-06-15T19:28:40.205Z,17.32
2018-06-15T19:31:09.141Z,18.67
2018-06-15T19:33:38.123Z,14.10
2018-06-15T19:38:45.660Z,13.83
2018-06-15T19:41:14.586Z,16.48
2018-06-15T19:43:44.870Z,12.13
2018-06-15T19:46:14.239Z,13.10
2018-06-15T19:48:44.103Z,17.05
2018-06-15T19:51:13.171Z,11.75
2018-06-15T19:53:42.293Z,14.75
2018-06-15T19:56:12.419Z,15.30
2018-06-15T19:58:41.574Z,13.45
2018-06-15T20:01:10.612Z,12.25
2018-06-15T20:03:39.208Z,13.23
2018-06-15T20:06:08.269Z,15.70
2018-06-15T20:08:37.285Z,13.60
2018-06-15T20:11:06.247Z,15.93
2018-06-15T20:13:35.317Z,13.20
2018-06-15T20:16:04.867Z,14.87
2018-06-15T20:18:33.831Z,15.13
2018-06-15T20:21:02.978Z,9.80
2018-06-15T20:23:32.349Z,15.65
2018-06-15T20:26:02.291Z,9.43
2018-06-15T20:28:32.886Z,9.20
2018-06-15T20:31:03.273Z,9.73
2018-06-15T20:33:33.356Z,9.83
2018-06-15T20:36:03.048Z,10.15
2018-06-15T20:38:33.448Z,10.32
2018-06-15T20:41:02.684Z,8.30
2018-06-15T20:43:31.453Z,10.63
2018-06-15T20:46:00.574Z,9.98
2018-06-15T20:55:15.148Z,10.45
2018-06-15T20:57:44.019Z,11.20
2018-06-15T21:00:12.881Z,12.10
2018-06-15T21:02:42.276Z,9.65
2018-06-15T21:05:11.166Z,10.48
2018-06-15T21:07:41.055Z,10.40
2018-06-15T21:10:10.678Z,13.78
2018-06-15T21:12:42.475Z,11.55
2018-06-15T21:15:16.769Z,10.45
2018-06-15T21:17:46.478Z,10.98
2018-06-15T21:20:14.873Z,11.97
2018-06-15T21:22:43.426Z,12.15
2018-06-15T21:25:12.334Z,14.03
2018-06-15T21:27:41.252Z,13.70
2018-06-15T21:30:09.594Z,12.20
2018-06-15T21:32:44.973Z,12.33
2018-06-15T21:35:13.806Z,14.38
2018-06-15T21:37:42.888Z,10.90
2018-06-15T21:40:11.794Z,14.20
2018-06-15T21:42:40.672Z,11.97
2018-06-15T21:45:09.597Z,14.53
2018-06-15T21:47:38.510Z,12.73
2018-06-15T21:50:07.667Z,10.28
2018-06-15T21:52:36.705Z,12.47
2018-06-15T21:55:05.721Z,14.45
2018-06-15T21:57:34.659Z,14.00
2018-06-15T22:00:03.734Z,11.10
2018-06-15T22:02:32.677Z,10.88
2018-06-15T22:05:01.592Z,11.60
2018-06-15T22:07:30.620Z,12.33
2018-06-15T22:09:59.222Z,14.35
2018-06-15T22:12:28.128Z,14.83
2018-06-15T22:14:57.017Z,13.08
2018-06-15T22:17:25.907Z,15.20
2018-06-15T22:19:54.778Z,13.48
2018-06-15T22:22:23.648Z,12.50
2018-06-15T22:24:52.734Z,13.45
2018-06-15T22:27:21.399Z,16.73
2018-06-15T22:29:50.295Z,13.78
2018-06-15T22:32:19.166Z,11.73
2018-06-15T22:34:47.527Z,14.05
2018-06-15T22:37:16.427Z,13.43
2018-06-15T22:39:44.766Z,15.77
2018-06-15T22:42:13.135Z,13.25
2018-06-15T22:44:42.046Z,14.60
2018-06-15T22:47:10.929Z,13.70
2018-06-15T22:49:39.414Z,17.77
2018-06-15T22:52:07.879Z,17.20
2018-06-15T22:54:36.527Z,16.02
2018-06-15T22:57:05.048Z,16.83
2018-06-15T22:59:33.433Z,13.28
2018-06-15T23:02:01.888Z,14.97
2018-06-15T23:04:30.315Z,17.42
2018-06-15T23:06:58.694Z,15.13
2018-06-15T23:09:26.772Z,13.30
2018-06-15T23:11:55.100Z,15.17
2018-06-15T23:14:23.651Z,17.43
2018-06-15T23:16:52.025Z,18.62
2018-06-15T23:19:20.954Z,14.10
2018-06-15T23:21:49.859Z,14.45
2018-06-15T23:24:19.623Z,15.20
2018-06-15T23:26:48.576Z,19.02
2018-06-15T23:29:17.673Z,17.20
2018-06-15T23:31:46.028Z,19.20
2018-06-15T23:34:14.434Z,16.67
2018-06-15T23:36:43.702Z,19.48
2018-06-15T23:39:12.055Z,17.75
2018-06-15T23:41:40.988Z,18.15
2018-06-15T23:44:09.923Z,20.23
2018-06-15T23:46:38.844Z,17.95
2018-06-15T23:49:07.767Z,20.30
2018-06-15T23:51:36.693Z,20.82
2018-06-15T23:54:05.657Z,17.85
2018-06-15T23:56:34.774Z,21.65
2018-06-15T23:59:03.720Z,20.52
